createdAt,value
2023-02-23T00:00:35.563Z,5.60
2023-02-23T00:03:03.274Z,5.70
2023-02-23T00:05:37.186Z,5.70
2023-02-23T00:08:05.148Z,5.50
2023-02-23T00:10:33.478Z,5.60
2023-02-23T00:13:01.576Z,5.50
2023-02-23T00:15:29.843Z,5.50
2023-02-23T00:17:58.980Z,5.60
2023-02-23T00:20:29.553Z,5.50
2023-02-23T00:23:00.533Z,5.60
2023-02-23T00:25:29.073Z,5.50
2023-02-23T00:27:56.098Z,5.50
2023-02-23T00:30:23.868Z,5.50
2023-02-23T00:32:52.459Z,5.40
2023-02-23T00:35:19.561Z,5.40
2023-02-23T00:37:50.179Z,5.50
2023-02-23T00:40:22.220Z,5.50
2023-02-23T00:42:51.547Z,5.40
2023-02-23T00:45:20.143Z,5.40
2023-02-23T00:47:48.718Z,5.60
2023-02-23T00:50:19.062Z,5.40
2023-02-23T00:52:45.949Z,5.50
2023-02-23T00:55:15.443Z,5.40
2023-02-23T00:57:42.796Z,5.30
2023-02-23T01:00:21.479Z,5.30
2023-02-23T01:02:49.973Z,5.30
2023-02-23T01:05:17.504Z,5.30
2023-02-23T01:07:47.478Z,5.30
2023-02-23T01:10:20.645Z,5.40
2023-02-23T01:12:54.623Z,5.20
2023-02-23T01:15:22.042Z,5.30
2023-02-23T01:17:49.076Z,5.20
2023-02-23T01:20:20.026Z,5.30
2023-02-23T01:22:52.049Z,5.30
2023-02-23T01:25:19.574Z,5.30
2023-02-23T01:27:46.752Z,5.40
2023-02-23T01:30:16.258Z,5.30
2023-02-23T01:32:43.242Z,5.40
2023-02-23T01:35:15.058Z,5.20
2023-02-23T01:37:44.039Z,5.20
2023-02-23T01:40:29.596Z,5.10
2023-02-23T01:43:26.289Z,5.10
2023-02-23T01:46:00.332Z,5.20
2023-02-23T01:48:39.764Z,5.10
2023-02-23T01:51:13.574Z,5.00
2023-02-23T01:53:52.883Z,5.00
2023-02-23T01:56:29.700Z,5.00
2023-02-23T01:59:06.995Z,5.10
2023-02-23T02:01:34.094Z,5.20
2023-02-23T02:04:07.800Z,5.00
2023-02-23T02:06:38.694Z,4.90
2023-02-23T02:09:17.303Z,5.00
2023-02-23T02:11:46.993Z,4.90
2023-02-23T02:14:33.376Z,4.90
2023-02-23T02:17:39.330Z,4.90
2023-02-23T02:20:32.594Z,4.80
2023-02-23T02:23:36.948Z,4.80
2023-02-23T02:26:38.781Z,4.90
2023-02-23T02:29:52.241Z,4.80
2023-02-23T02:33:19.286Z,4.80
2023-02-23T02:36:22.674Z,4.90
2023-02-23T02:39:37.467Z,4.90
2023-02-23T02:42:36.481Z,4.80
2023-02-23T02:45:25.178Z,4.80
2023-02-23T02:48:20.966Z,4.70
2023-02-23T02:51:02.338Z,4.60
2023-02-23T02:54:12.327Z,4.70
2023-02-23T02:56:44.565Z,4.70
2023-02-23T02:59:39.695Z,4.80
2023-02-23T03:02:33.685Z,4.70
2023-02-23T03:05:19.333Z,4.70
2023-02-23T03:08:30.292Z,4.60
2023-02-23T03:11:26.547Z,4.60
2023-02-23T03:14:42.042Z,4.60
2023-02-23T03:17:49.268Z,4.60
2023-02-23T03:20:52.817Z,4.50
2023-02-23T03:24:30.417Z,4.60
2023-02-23T03:27:42.082Z,4.50
2023-02-23T03:30:46.933Z,4.60
2023-02-23T03:33:53.804Z,4.60
2023-02-23T03:36:47.582Z,4.50
2023-02-23T03:39:57.628Z,4.50
2023-02-23T03:42:54.016Z,4.50
2023-02-23T03:45:44.674Z,4.50
2023-02-23T03:48:37.716Z,4.40
2023-02-23T03:51:29.959Z,4.50
2023-02-23T03:54:27.017Z,4.40
2023-02-23T03:57:20.896Z,4.50
2023-02-23T04:00:19.471Z,4.50
2023-02-23T04:03:13.536Z,4.40
2023-02-23T04:06:03.555Z,4.50
2023-02-23T04:08:57.550Z,4.50
2023-02-23T04:12:00.966Z,4.50
2023-02-23T04:14:56.780Z,4.50
2023-02-23T04:17:31.036Z,4.50
2023-02-23T04:19:58.328Z,4.50
2023-02-23T04:22:26.208Z,4.40
2023-02-23T04:24:53.131Z,4.40
2023-02-23T04:27:20.696Z,4.50
2023-02-23T04:29:47.726Z,4.50
2023-02-23T04:32:21.549Z,4.50
2023-02-23T04:34:51.720Z,4.50
2023-02-23T04:37:21.247Z,4.50
2023-02-23T04:39:51.371Z,4.50
2023-02-23T04:42:19.127Z,4.50
2023-02-23T04:44:47.120Z,4.40
2023-02-23T04:47:20.725Z,4.40
2023-02-23T04:49:47.767Z,4.40
2023-02-23T04:52:14.706Z,4.30
2023-02-23T04:54:42.262Z,4.30
2023-02-23T04:57:10.280Z,4.30
2023-02-23T04:59:37.785Z,4.40
2023-02-23T05:02:05.041Z,4.30
2023-02-23T05:04:35.732Z,4.20
2023-02-23T05:07:05.293Z,4.30
2023-02-23T05:09:33.283Z,4.30
2023-02-23T05:12:00.588Z,4.30
2023-02-23T05:14:28.052Z,4.20
2023-02-23T05:16:55.017Z,4.10
2023-02-23T05:19:22.465Z,4.10
2023-02-23T05:21:50.649Z,4.10
2023-02-23T05:24:19.505Z,4.10
2023-02-23T05:26:46.758Z,4.10
2023-02-23T05:29:13.644Z,4.20
2023-02-23T05:31:40.687Z,4.10
2023-02-23T05:34:07.966Z,4.00
2023-02-23T05:36:37.941Z,4.00
2023-02-23T05:39:05.173Z,4.10
2023-02-23T05:41:32.232Z,4.20
2023-02-23T05:43:59.417Z,4.10
2023-02-23T05:46:28.005Z,4.00
2023-02-23T05:49:04.563Z,4.00
2023-02-23T05:51:34.941Z,4.10
2023-02-23T05:54:03.452Z,4.10
2023-02-23T05:56:36.771Z,4.00
2023-02-23T05:59:04.849Z,3.90
2023-02-23T06:01:32.787Z,4.00
2023-02-23T06:04:00.199Z,4.00
2023-02-23T06:06:28.370Z,3.90
2023-02-23T06:08:56.631Z,3.90
2023-02-23T06:11:26.319Z,3.90
2023-02-23T06:13:53.324Z,4.00
2023-02-23T06:16:21.087Z,4.00
2023-02-23T06:18:51.313Z,3.90
2023-02-23T06:21:18.695Z,3.90
2023-02-23T06:23:48.658Z,3.80
2023-02-23T06:26:15.639Z,3.90
2023-02-23T06:28:45.614Z,3.90
2023-02-23T06:31:13.683Z,3.80
2023-02-23T06:33:40.569Z,3.90
2023-02-23T06:36:08.196Z,3.70
2023-02-23T06:38:35.846Z,3.80
2023-02-23T06:41:12.404Z,3.90
2023-02-23T06:43:39.663Z,3.80
2023-02-23T06:46:07.430Z,3.70
2023-02-23T06:48:35.458Z,3.80
2023-02-23T06:51:03.840Z,3.80
2023-02-23T06:53:31.297Z,3.90
2023-02-23T06:55:58.185Z,3.80
2023-02-23T06:58:25.822Z,3.90
2023-02-23T07:00:56.862Z,3.90
2023-02-23T07:03:24.540Z,3.90
2023-02-23T07:05:56.310Z,3.90
2023-02-23T07:08:23.291Z,4.00
2023-02-23T07:10:52.234Z,4.00
2023-02-23T07:13:22.163Z,3.90
2023-02-23T07:15:49.431Z,4.10
2023-02-23T07:18:16.359Z,4.20
2023-02-23T07:20:43.655Z,4.20
2023-02-23T07:23:20.135Z,4.20
2023-02-23T07:25:47.044Z,4.30
2023-02-23T07:28:14.673Z,4.20
2023-02-23T07:30:48.198Z,4.10
2023-02-23T07:33:33.006Z,4.10
2023-02-23T07:36:00.054Z,4.30
2023-02-23T07:39:08.911Z,4.30
2023-02-23T07:41:39.795Z,4.50
2023-02-23T07:44:16.328Z,4.40
2023-02-23T07:46:43.488Z,4.40
2023-02-23T07:49:10.549Z,4.40
2023-02-23T07:51:41.316Z,4.30
2023-02-23T07:54:08.604Z,4.40
2023-02-23T07:56:35.838Z,4.30
2023-02-23T07:59:03.858Z,4.40
2023-02-23T08:01:31.110Z,4.50
2023-02-23T08:03:58.241Z,4.40
2023-02-23T08:06:34.452Z,4.50
2023-02-23T08:09:08.836Z,4.60
2023-02-23T08:11:35.937Z,4.70
2023-02-23T08:14:13.002Z,4.90
2023-02-23T08:16:41.203Z,5.00
2023-02-23T08:19:09.141Z,5.00
2023-02-23T08:21:36.122Z,4.90
2023-02-23T08:24:09.605Z,5.00
2023-02-23T08:26:40.525Z,4.80
2023-02-23T08:29:08.117Z,4.90
2023-02-23T08:31:38.175Z,4.90
2023-02-23T08:34:07.737Z,5.10
2023-02-23T08:36:34.809Z,5.20
2023-02-23T08:39:02.333Z,5.20
2023-02-23T08:41:30.129Z,5.40
2023-02-23T08:43:58.957Z,5.30
2023-02-23T08:46:29.029Z,5.10
2023-02-23T08:51:46.990Z,5.00
2023-02-23T08:54:16.222Z,5.10
2023-02-23T08:56:45.845Z,5.20
2023-02-23T08:59:19.532Z,5.20
2023-02-23T09:04:38.496Z,5.20
2023-02-23T09:07:16.897Z,5.50
2023-02-23T09:09:45.601Z,5.60
2023-02-23T09:12:12.737Z,5.60
2023-02-23T09:14:40.973Z,5.60
2023-02-23T09:17:08.468Z,5.40
2023-02-23T09:19:35.695Z,5.50
2023-02-23T09:22:03.078Z,5.50
2023-02-23T09:24:36.725Z,5.70
2023-02-23T09:27:13.634Z,5.80
2023-02-23T09:29:49.280Z,5.90
2023-02-23T09:35:27.671Z,6.00
2023-02-23T09:37:58.590Z,5.90
2023-02-23T09:40:39.496Z,5.90
2023-02-23T09:43:23.063Z,6.10
2023-02-23T09:46:34.639Z,6.30
2023-02-23T09:49:22.594Z,5.90
2023-02-23T09:51:59.024Z,6.10
2023-02-23T09:54:34.650Z,6.20
2023-02-23T09:57:37.174Z,6.20
2023-02-23T10:00:17.652Z,6.50
2023-02-23T10:03:15.856Z,6.40
2023-02-23T10:06:01.347Z,6.70
2023-02-23T10:09:32.113Z,7.00
2023-02-23T10:12:12.393Z,7.10
2023-02-23T10:15:24.671Z,7.40
2023-02-23T10:22:09.193Z,7.70
2023-02-23T10:25:07.420Z,8.10
2023-02-23T10:27:50.407Z,8.20
2023-02-23T10:30:30.789Z,8.00
2023-02-23T10:33:12.739Z,8.50
2023-02-23T10:35:46.842Z,8.80
2023-02-23T10:38:26.581Z,9.40
2023-02-23T10:41:14.599Z,9.70
2023-02-23T10:43:48.578Z,9.90
2023-02-23T10:46:48.892Z,10.00
2023-02-23T10:49:25.552Z,10.20
2023-02-23T10:52:03.698Z,10.30
2023-02-23T10:54:53.400Z,10.50
2023-02-23T10:57:42.557Z,10.80
2023-02-23T11:00:17.047Z,10.90
2023-02-23T11:02:48.603Z,10.90
2023-02-23T11:05:44.525Z,10.80
2023-02-23T11:08:36.795Z,10.90
2023-02-23T11:11:16.122Z,10.80
2023-02-23T11:14:11.509Z,10.80
2023-02-23T11:16:48.186Z,10.70
2023-02-23T11:19:35.523Z,10.50
2023-02-23T11:34:09.258Z,10.80
2023-02-23T11:37:39.923Z,10.90
2023-02-23T11:40:36.304Z,11.00
2023-02-23T11:43:32.224Z,10.80
2023-02-23T11:49:56.440Z,10.60
2023-02-23T11:53:03.911Z,11.20
2023-02-23T11:56:14.611Z,11.40
2023-02-23T11:59:22.779Z,11.20
2023-02-23T12:02:51.528Z,11.20
2023-02-23T12:05:30.360Z,11.50
2023-02-23T12:10:12.222Z,11.30
2023-02-23T12:17:57.429Z,12.10
2023-02-23T12:21:52.588Z,11.60
2023-02-23T12:28:27.987Z,11.40
2023-02-23T12:32:15.415Z,11.00
2023-02-23T12:40:04.235Z,11.30
2023-02-23T12:54:22.220Z,11.40
2023-02-23T12:58:24.544Z,11.40
2023-02-23T13:19:02.911Z,11.50
2023-02-23T13:22:35.490Z,11.30
2023-02-23T13:30:06.565Z,11.50
2023-02-23T13:33:44.640Z,11.10
2023-02-23T13:37:16.590Z,11.00
2023-02-23T13:45:14.090Z,11.10
2023-02-23T13:49:39.264Z,10.90
2023-02-23T13:53:19.408Z,10.90
2023-02-23T14:05:06.136Z,10.50
2023-02-23T14:16:17.369Z,10.60
2023-02-23T14:23:23.050Z,10.50
2023-02-23T14:26:57.129Z,10.50
2023-02-23T14:30:29.958Z,10.50
2023-02-23T14:33:57.101Z,10.60
2023-02-23T14:38:47.470Z,10.50
2023-02-23T14:52:14.736Z,10.20
2023-02-23T14:58:01.973Z,10.10
2023-02-23T15:05:20.057Z,10.00
2023-02-23T15:08:39.539Z,10.00
2023-02-23T15:12:27.838Z,10.00
2023-02-23T15:23:06.469Z,9.80
2023-02-23T15:26:36.532Z,9.80
2023-02-23T15:30:35.633Z,9.80
2023-02-23T15:34:04.618Z,9.90
2023-02-23T15:49:26.084Z,10.00
2023-02-23T15:53:12.933Z,9.90
2023-02-23T16:00:47.151Z,9.90
2023-02-23T16:03:56.778Z,9.90
2023-02-23T16:11:52.140Z,9.80
2023-02-23T16:15:40.247Z,9.70
2023-02-23T16:38:27.534Z,9.80
2023-02-23T16:40:55.400Z,9.90
2023-02-23T16:43:22.926Z,9.90
2023-02-23T16:45:51.643Z,9.80
2023-02-23T16:48:19.272Z,9.60
2023-02-23T16:50:47.973Z,9.60
2023-02-23T16:53:16.954Z,9.70
2023-02-23T16:56:00.926Z,9.70
2023-02-23T16:58:31.992Z,9.70
2023-02-23T17:01:02.319Z,9.50
2023-02-23T17:03:31.361Z,9.50
2023-02-23T17:06:03.378Z,9.40
2023-02-23T17:08:38.167Z,9.40
2023-02-23T17:11:12.908Z,9.40
2023-02-23T17:13:42.972Z,9.40
2023-02-23T17:16:23.379Z,9.50
2023-02-23T17:19:01.474Z,9.30
2023-02-23T17:21:34.560Z,9.30
2023-02-23T17:24:07.461Z,9.40
2023-02-23T17:26:37.803Z,9.40
2023-02-23T17:29:19.607Z,9.40
2023-02-23T17:31:47.343Z,9.40
2023-02-23T17:34:14.882Z,9.40
2023-02-23T17:36:52.230Z,9.40
2023-02-23T17:39:22.799Z,9.50
2023-02-23T17:41:55.682Z,9.50
2023-02-23T17:44:25.423Z,9.50
2023-02-23T17:46:55.718Z,9.40
2023-02-23T17:49:25.794Z,9.50
2023-02-23T17:51:55.242Z,9.60
2023-02-23T18:08:24.501Z,9.50
2023-02-23T18:15:27.971Z,9.50
2023-02-23T18:32:02.636Z,9.20
2023-02-23T18:47:45.065Z,9.20
2023-02-23T18:53:56.145Z,9.10
2023-02-23T19:01:45.551Z,9.10
2023-02-23T19:04:30.592Z,9.00
2023-02-23T19:07:27.386Z,9.10
2023-02-23T19:10:48.088Z,9.10
2023-02-23T19:31:23.514Z,9.10
2023-02-23T19:32:37.682Z,9.50
2023-02-23T19:34:01.782Z,8.90
2023-02-23T19:36:33.986Z,8.90
2023-02-23T19:39:10.717Z,9.00
2023-02-23T19:41:49.232Z,9.00
2023-02-23T19:44:17.375Z,9.00
2023-02-23T19:46:44.510Z,9.10
2023-02-23T19:49:17.073Z,9.00
2023-02-23T19:51:53.275Z,8.80
2023-02-23T19:57:31.512Z,8.70
2023-02-23T20:00:07.894Z,8.60
2023-02-23T20:02:47.366Z,8.50
2023-02-23T20:05:18.613Z,8.30
2023-02-23T20:07:45.908Z,8.30
2023-02-23T20:10:16.183Z,8.00
2023-02-23T20:12:44.875Z,8.00
2023-02-23T20:15:14.816Z,8.10
2023-02-23T20:17:48.127Z,8.00
2023-02-23T20:20:15.984Z,8.00
2023-02-23T20:22:54.305Z,7.90
2023-02-23T20:25:27.143Z,7.90
2023-02-23T20:27:55.601Z,7.70
2023-02-23T20:30:31.662Z,7.70
2023-02-23T20:33:11.910Z,7.90
2023-02-23T20:35:47.746Z,8.00
2023-02-23T20:38:24.510Z,8.00
2023-02-23T20:40:53.151Z,7.90
2023-02-23T20:43:22.035Z,7.80
2023-02-23T20:45:51.527Z,7.90
2023-02-23T20:48:18.543Z,7.80
2023-02-23T20:50:45.748Z,7.70
2023-02-23T20:53:18.503Z,7.60
2023-02-23T20:55:53.388Z,7.70
2023-02-23T20:58:29.210Z,7.50
2023-02-23T21:00:58.312Z,7.50
2023-02-23T21:03:28.225Z,7.60
2023-02-23T21:06:00.217Z,7.70
2023-02-23T21:08:30.003Z,7.60
2023-02-23T21:10:58.288Z,7.60
2023-02-23T21:13:29.405Z,7.60
2023-02-23T21:16:07.244Z,7.60
2023-02-23T21:18:34.345Z,7.60
2023-02-23T21:21:11.425Z,7.60
2023-02-23T21:23:44.778Z,7.60
2023-02-23T21:29:02.239Z,7.50
2023-02-23T21:31:29.615Z,7.50
2023-02-23T21:34:05.994Z,7.50
2023-02-23T21:36:37.339Z,7.50
2023-02-23T21:39:08.439Z,7.50
2023-02-23T21:41:42.893Z,7.50
2023-02-23T21:44:12.282Z,7.40
2023-02-23T21:46:40.561Z,7.40
2023-02-23T21:49:19.851Z,7.40
2023-02-23T21:51:48.052Z,7.40
2023-02-23T21:54:15.670Z,7.40
2023-02-23T21:56:42.840Z,7.40
2023-02-23T21:59:13.270Z,7.40
2023-02-23T22:01:42.964Z,7.40
2023-02-23T22:04:15.262Z,7.50
2023-02-23T22:06:45.115Z,7.50
2023-02-23T22:09:16.009Z,7.50
2023-02-23T22:11:47.615Z,7.40
2023-02-23T22:14:18.130Z,7.40
2023-02-23T22:16:47.468Z,7.30
2023-02-23T22:19:14.749Z,7.40
2023-02-23T22:21:44.367Z,7.30
2023-02-23T22:24:15.082Z,7.30
2023-02-23T22:26:54.505Z,7.30
2023-02-23T22:29:26.120Z,7.30
2023-02-23T22:31:56.266Z,7.30
2023-02-23T22:34:23.414Z,7.30
2023-02-23T22:36:51.145Z,7.30
2023-02-23T22:39:18.498Z,7.30
2023-02-23T22:41:48.210Z,7.20
2023-02-23T22:44:20.297Z,7.20
2023-02-23T22:46:48.578Z,7.20
2023-02-23T22:49:16.740Z,7.40
2023-02-23T22:51:44.401Z,7.30
2023-02-23T22:54:15.596Z,7.30
2023-02-23T22:56:44.822Z,7.30
2023-02-23T22:59:20.392Z,7.30
2023-02-23T23:01:49.041Z,7.40
2023-02-23T23:04:16.339Z,7.40
2023-02-23T23:06:44.062Z,7.40
2023-02-23T23:09:12.682Z,7.50
2023-02-23T23:11:44.075Z,7.50
2023-02-23T23:14:13.130Z,7.40
2023-02-23T23:16:47.798Z,7.40
2023-02-23T23:19:25.996Z,7.40
2023-02-23T23:21:56.450Z,7.40
2023-02-23T23:24:26.297Z,7.40
2023-02-23T23:26:55.445Z,7.50
2023-02-23T23:29:29.702Z,7.40
2023-02-23T23:31:57.289Z,7.30
2023-02-23T23:34:25.337Z,7.30
2023-02-23T23:36:56.594Z,7.40
2023-02-23T23:39:26.121Z,7.40
2023-02-23T23:42:01.941Z,7.40
2023-02-23T23:44:32.523Z,7.30
2023-02-23T23:47:05.189Z,7.40
2023-02-23T23:49:40.002Z,7.30
2023-02-23T23:52:09.621Z,7.30
2023-02-23T23:54:42.692Z,7.20
2023-02-23T23:57:11.648Z,7.20
2023-02-23T23:59:45.991Z,7.20
